createdAt,value
2018-08-28T00:02:10.063Z,91.11
2018-08-28T00:04:39.392Z,89.67
2018-08-28T00:07:08.604Z,90.43
2018-08-28T00:09:37.663Z,87.06
2018-08-28T00:12:07.043Z,89.38
2018-08-28T00:14:36.332Z,89.72
2018-08-28T00:17:05.718Z,89.86
2018-08-28T00:19:35.003Z,86.27
2018-08-28T00:22:04.216Z,88.83
2018-08-28T00:24:33.570Z,87.34
2018-08-28T00:27:02.812Z,87.96
2018-08-28T00:29:31.864Z,88.63
2018-08-28T00:32:01.151Z,88.34
2018-08-28T00:34:30.363Z,88.25
2018-08-28T00:36:59.695Z,89.05
2018-08-28T00:39:28.948Z,89.38
2018-08-28T00:41:58.259Z,87.09
2018-08-28T00:44:27.100Z,87.84
2018-08-28T00:46:56.121Z,87.99
2018-08-28T00:49:25.402Z,86.37
2018-08-28T00:51:54.702Z,87.22
2018-08-28T00:54:24.470Z,87.46
2018-08-28T00:56:53.638Z,87.60
2018-08-28T00:59:22.869Z,88.13
2018-08-28T01:01:52.304Z,87.35
2018-08-28T01:04:21.489Z,86.97
2018-08-28T01:06:51.028Z,86.11
2018-08-28T01:09:20.416Z,87.05
2018-08-28T01:11:49.663Z,87.77
2018-08-28T01:14:18.954Z,88.94
2018-08-28T01:16:48.332Z,87.16
2018-08-28T01:19:17.586Z,88.93
2018-08-28T01:21:46.547Z,88.79
2018-08-28T01:24:15.347Z,88.72
2018-08-28T01:26:44.344Z,87.86
2018-08-28T01:29:13.270Z,89.51
2018-08-28T01:31:42.179Z,86.18
2018-08-28T01:34:11.132Z,87.08
2018-08-28T01:36:40.081Z,87.95
2018-08-28T01:39:09.455Z,88.86
2018-08-28T01:41:38.501Z,88.10
2018-08-28T01:44:07.295Z,88.00
2018-08-28T01:46:37.369Z,88.83
2018-08-28T01:49:06.641Z,88.01
2018-08-28T01:51:35.929Z,86.69
2018-08-28T01:54:05.031Z,87.52
2018-08-28T01:56:34.352Z,87.38
2018-08-28T01:59:03.575Z,87.21
2018-08-28T02:01:32.810Z,87.86
2018-08-28T02:04:02.009Z,88.13
2018-08-28T02:06:31.033Z,87.23
2018-08-28T02:09:00.259Z,87.53
2018-08-28T02:11:29.460Z,85.14
2018-08-28T02:13:58.665Z,87.24
2018-08-28T02:16:27.524Z,88.31
2018-08-28T02:18:56.490Z,88.23
2018-08-28T02:21:25.869Z,89.02
2018-08-28T02:23:54.735Z,86.95
2018-08-28T02:26:23.923Z,88.12
2018-08-28T02:28:53.298Z,86.80
2018-08-28T02:31:22.158Z,87.87
2018-08-28T02:33:51.128Z,86.50
2018-08-28T02:36:20.111Z,86.23
2018-08-28T02:38:49.041Z,85.90
2018-08-28T02:41:17.915Z,85.90
2018-08-28T02:43:46.828Z,86.68
2018-08-28T02:46:15.646Z,85.53
2018-08-28T02:48:44.900Z,85.11
2018-08-28T02:51:14.045Z,85.47
2018-08-28T02:53:43.244Z,85.43
2018-08-28T02:56:12.324Z,85.86
2018-08-28T02:58:41.246Z,85.06
2018-08-28T03:01:10.303Z,85.48
2018-08-28T03:03:39.506Z,85.54
2018-08-28T03:06:09.030Z,86.07
2018-08-28T03:08:38.373Z,85.87
2018-08-28T03:11:07.371Z,86.54
2018-08-28T03:13:36.352Z,85.76
2018-08-28T03:16:05.318Z,86.35
2018-08-28T03:18:34.129Z,84.97
2018-08-28T03:21:03.408Z,86.49
2018-08-28T03:23:32.470Z,86.44
2018-08-28T03:26:01.684Z,87.59
2018-08-28T03:28:30.984Z,86.71
2018-08-28T03:31:00.236Z,87.60
2018-08-28T03:33:29.128Z,87.54
2018-08-28T03:35:58.536Z,87.45
2018-08-28T03:38:28.058Z,87.57
2018-08-28T03:40:57.070Z,87.24
2018-08-28T03:43:26.053Z,88.39
2018-08-28T03:45:55.299Z,88.29
2018-08-28T03:48:24.577Z,88.42
2018-08-28T03:50:53.634Z,88.06
2018-08-28T03:53:23.063Z,88.43
2018-08-28T03:55:51.951Z,87.91
2018-08-28T03:58:21.277Z,88.12
2018-08-28T04:00:50.492Z,88.08
2018-08-28T04:03:19.703Z,87.87
2018-08-28T04:05:48.608Z,88.30
2018-08-28T04:08:17.592Z,87.36
2018-08-28T04:10:46.507Z,87.58
2018-08-28T04:13:15.642Z,86.36
2018-08-28T04:15:44.703Z,87.03
2018-08-28T04:18:13.684Z,86.42
2018-08-28T04:20:42.528Z,86.35
2018-08-28T04:23:11.785Z,86.26
2018-08-28T04:25:40.691Z,85.86
2018-08-28T04:28:09.568Z,86.18
2018-08-28T04:30:38.641Z,85.08
2018-08-28T04:33:08.028Z,85.58
2018-08-28T04:35:37.157Z,84.54
2018-08-28T04:38:06.424Z,85.18
2018-08-28T04:40:35.613Z,84.12
2018-08-28T04:43:04.868Z,84.37
2018-08-28T04:45:34.028Z,83.22
2018-08-28T04:48:03.072Z,83.51
2018-08-28T04:50:31.901Z,82.54
2018-08-28T04:53:00.790Z,82.04
2018-08-28T04:55:30.276Z,82.72
2018-08-28T04:57:59.147Z,82.31
2018-08-28T05:00:28.320Z,83.70
2018-08-28T05:02:57.167Z,81.44
2018-08-28T05:05:25.963Z,82.33
2018-08-28T05:07:55.420Z,80.65
2018-08-28T05:10:24.308Z,80.47
2018-08-28T05:12:53.237Z,80.62
2018-08-28T05:15:22.200Z,81.20
2018-08-28T05:17:51.087Z,79.71
2018-08-28T05:20:20.127Z,78.98
2018-08-28T05:22:49.209Z,79.13
2018-08-28T05:25:18.513Z,77.58
2018-08-28T05:27:47.561Z,78.04
2018-08-28T05:30:16.998Z,76.87
2018-08-28T05:32:46.377Z,76.88
2018-08-28T05:35:15.797Z,76.41
2018-08-28T05:37:44.725Z,76.34
2018-08-28T05:40:13.552Z,74.61
2018-08-28T05:42:42.482Z,75.40
2018-08-28T05:45:11.542Z,72.03
2018-08-28T05:47:40.530Z,71.98
2018-08-28T05:50:09.513Z,72.37
2018-08-28T05:52:38.422Z,70.36
2018-08-28T05:55:07.596Z,69.87
2018-08-28T05:57:36.572Z,70.00
2018-08-28T06:00:05.548Z,69.42
2018-08-28T06:02:34.864Z,68.50
2018-08-28T06:05:04.013Z,68.88
2018-08-28T06:07:32.988Z,68.64
2018-08-28T06:10:01.912Z,68.69
2018-08-28T06:12:30.841Z,67.16
2018-08-28T06:14:59.845Z,66.43
2018-08-28T06:17:30.156Z,65.22
2018-08-28T06:19:59.516Z,63.76
2018-08-28T06:22:28.506Z,65.28
2018-08-28T06:24:57.398Z,63.24
2018-08-28T06:27:26.805Z,65.23
2018-08-28T06:29:55.857Z,63.02
2018-08-28T06:32:24.840Z,63.88
2018-08-28T06:34:53.644Z,64.16
2018-08-28T06:37:22.703Z,62.68
2018-08-28T06:39:51.516Z,61.38
2018-08-28T06:42:20.544Z,61.49
2018-08-28T06:44:49.443Z,61.37
2018-08-28T06:47:18.264Z,60.26
2018-08-28T06:49:47.221Z,59.70
2018-08-28T06:52:16.221Z,55.90
2018-08-28T06:54:45.238Z,59.53
2018-08-28T06:57:14.247Z,60.66
2018-08-28T06:59:44.260Z,60.84
2018-08-28T07:02:13.637Z,60.23
2018-08-28T07:04:42.760Z,59.18
2018-08-28T07:07:12.108Z,58.58
2018-08-28T07:09:41.066Z,60.17
2018-08-28T07:12:09.874Z,60.14
2018-08-28T07:14:38.845Z,58.78
2018-08-28T07:17:07.971Z,58.35
2018-08-28T07:19:36.904Z,56.71
2018-08-28T07:22:05.898Z,58.06
2018-08-28T07:24:35.023Z,58.19
2018-08-28T07:27:04.102Z,58.99
2018-08-28T07:29:32.977Z,55.77
2018-08-28T07:32:01.949Z,55.02
2018-08-28T07:34:31.112Z,57.73
2018-08-28T07:37:00.109Z,53.61
2018-08-28T07:39:29.096Z,53.76
2018-08-28T07:41:58.051Z,53.84
2018-08-28T07:44:27.076Z,52.62
2018-08-28T07:46:56.052Z,52.23
2018-08-28T07:49:24.851Z,52.54
2018-08-28T07:51:53.752Z,52.05
2018-08-28T07:54:22.677Z,50.51
2018-08-28T07:56:52.117Z,47.52
2018-08-28T07:59:21.132Z,46.14
2018-08-28T08:01:49.975Z,47.29
2018-08-28T08:04:18.938Z,47.61
2018-08-28T08:06:47.853Z,47.90
2018-08-28T08:09:16.689Z,46.32
2018-08-28T08:11:45.761Z,46.98
2018-08-28T08:14:14.694Z,48.69
2018-08-28T08:16:43.764Z,48.64
2018-08-28T08:19:25.139Z,49.89
2018-08-28T08:21:54.633Z,49.60
2018-08-28T08:24:24.375Z,48.73
2018-08-28T08:26:54.925Z,48.95
2018-08-28T08:29:26.145Z,49.67
2018-08-28T08:34:34.992Z,50.99
2018-08-28T08:37:04.884Z,48.81
2018-08-28T08:39:38.084Z,49.32
2018-08-28T08:42:07.634Z,47.87
2018-08-28T08:44:36.965Z,47.66
2018-08-28T08:47:05.912Z,47.02
2018-08-28T08:49:34.775Z,46.53
2018-08-28T08:52:03.964Z,45.85
2018-08-28T08:54:33.392Z,45.11
2018-08-28T08:57:02.456Z,43.35
2018-08-28T08:59:31.336Z,41.45
2018-08-28T09:02:00.317Z,41.44
2018-08-28T09:04:29.221Z,40.99
2018-08-28T09:06:58.515Z,40.67
2018-08-28T09:09:28.620Z,41.64
2018-08-28T09:11:58.092Z,41.23
2018-08-28T09:14:27.369Z,40.47
2018-08-28T09:16:56.631Z,43.46
2018-08-28T09:19:26.072Z,43.99
2018-08-28T09:21:55.166Z,42.36
2018-08-28T09:24:24.125Z,41.61
2018-08-28T09:26:53.332Z,41.27
2018-08-28T09:29:22.237Z,41.37
2018-08-28T09:31:51.299Z,41.14
2018-08-28T09:34:20.208Z,42.47
2018-08-28T09:36:49.296Z,45.12
2018-08-28T09:39:18.388Z,43.50
2018-08-28T09:41:47.528Z,43.79
2018-08-28T09:44:16.459Z,41.57
2018-08-28T09:46:45.552Z,40.76
2018-08-28T09:49:14.352Z,41.42
2018-08-28T09:51:43.523Z,40.38
2018-08-28T09:54:12.484Z,40.72
2018-08-28T09:56:41.467Z,39.30
2018-08-28T09:59:10.311Z,39.02
2018-08-28T10:01:42.763Z,38.72
2018-08-28T10:04:12.799Z,39.23
2018-08-28T10:06:41.762Z,40.73
2018-08-28T10:09:15.201Z,40.36
2018-08-28T10:11:44.253Z,40.90
2018-08-28T10:14:13.684Z,41.14
2018-08-28T10:16:42.980Z,42.02
2018-08-28T10:19:11.872Z,43.45
2018-08-28T10:21:40.741Z,43.03
2018-08-28T10:24:10.065Z,44.75
2018-08-28T10:26:39.279Z,44.73
2018-08-28T10:29:08.133Z,43.37
2018-08-28T10:31:37.560Z,41.86
2018-08-28T10:34:06.590Z,39.77
2018-08-28T10:36:35.943Z,40.34
2018-08-28T10:39:06.825Z,38.53
2018-08-28T10:41:35.857Z,37.08
2018-08-28T10:44:05.098Z,34.78
2018-08-28T10:46:34.031Z,36.76
2018-08-28T10:49:03.317Z,35.60
2018-08-28T10:51:32.256Z,36.87
2018-08-28T10:54:01.100Z,35.19
2018-08-28T10:56:29.929Z,36.24
2018-08-28T10:58:58.841Z,36.40
2018-08-28T11:01:27.643Z,36.08
2018-08-28T11:03:56.544Z,37.81
2018-08-28T11:06:25.717Z,35.55
2018-08-28T11:08:54.681Z,36.45
2018-08-28T11:11:24.888Z,36.88
2018-08-28T11:13:53.696Z,37.02
2018-08-28T11:16:22.552Z,37.42
2018-08-28T11:18:51.456Z,37.98
2018-08-28T11:21:20.304Z,36.61
2018-08-28T11:23:49.198Z,35.46
2018-08-28T11:26:18.280Z,36.79
2018-08-28T11:28:47.993Z,36.82
2018-08-28T11:31:17.236Z,37.02
2018-08-28T11:33:46.157Z,37.12
2018-08-28T11:36:15.112Z,37.26
2018-08-28T11:38:44.092Z,36.15
2018-08-28T11:41:12.941Z,34.44
2018-08-28T11:43:41.803Z,34.49
2018-08-28T11:46:10.680Z,35.61
2018-08-28T11:48:39.555Z,36.50
2018-08-28T11:51:08.451Z,37.79
2018-08-28T11:53:37.303Z,36.85
2018-08-28T11:56:06.419Z,36.47
2018-08-28T11:58:35.354Z,37.21
2018-08-28T12:01:04.285Z,38.21
2018-08-28T12:03:33.196Z,38.02
2018-08-28T12:06:02.257Z,38.96
2018-08-28T12:08:31.521Z,39.52
2018-08-28T12:11:00.381Z,40.39
2018-08-28T12:13:29.481Z,41.24
2018-08-28T12:15:58.352Z,42.26
2018-08-28T12:18:27.406Z,42.84
2018-08-28T12:20:56.691Z,43.19
2018-08-28T12:23:25.528Z,42.00
2018-08-28T12:25:54.348Z,42.31
2018-08-28T12:28:23.417Z,41.14
2018-08-28T12:30:52.277Z,42.14
2018-08-28T12:33:21.725Z,43.00
2018-08-28T12:35:50.657Z,41.61
2018-08-28T12:38:19.556Z,42.18
2018-08-28T12:40:49.222Z,42.39
2018-08-28T12:43:18.428Z,43.34
2018-08-28T12:45:47.252Z,42.05
2018-08-28T12:48:16.285Z,43.50
2018-08-28T12:50:45.232Z,44.11
2018-08-28T12:53:14.096Z,44.58
2018-08-28T12:55:43.338Z,41.95
2018-08-28T12:58:12.160Z,44.76
2018-08-28T13:00:41.076Z,43.82
2018-08-28T13:03:10.006Z,43.22
2018-08-28T13:05:38.876Z,44.74
2018-08-28T13:08:07.915Z,45.29
2018-08-28T13:10:36.860Z,44.89
2018-08-28T13:13:06.052Z,44.38
2018-08-28T13:15:34.974Z,44.55
2018-08-28T13:18:03.880Z,44.45
2018-08-28T13:20:32.787Z,46.42
2018-08-28T13:23:01.956Z,45.91
2018-08-28T13:25:30.946Z,46.38
2018-08-28T13:27:59.796Z,46.16
2018-08-28T13:30:28.842Z,46.19
2018-08-28T13:32:57.961Z,45.48
2018-08-28T13:35:27.183Z,44.88
2018-08-28T13:37:56.063Z,45.44
2018-08-28T13:40:25.106Z,45.48
2018-08-28T13:42:53.940Z,45.16
2018-08-28T13:45:22.924Z,45.27
2018-08-28T13:47:51.886Z,43.62
2018-08-28T13:50:21.029Z,45.53
2018-08-28T13:52:50.013Z,44.51
2018-08-28T13:55:19.277Z,44.87
2018-08-28T13:57:48.164Z,45.14
2018-08-28T14:00:17.132Z,44.27
2018-08-28T14:02:46.696Z,43.81
2018-08-28T14:05:15.946Z,44.01
2018-08-28T14:07:45.038Z,43.91
2018-08-28T14:10:14.569Z,43.73
2018-08-28T14:12:43.859Z,42.65
2018-08-28T14:15:13.263Z,40.77
2018-08-28T14:17:42.613Z,41.58
2018-08-28T14:20:12.037Z,41.06
2018-08-28T14:22:40.970Z,39.88
2018-08-28T14:25:10.224Z,38.99
2018-08-28T14:27:39.836Z,40.31
2018-08-28T14:30:08.705Z,41.20
2018-08-28T14:32:37.697Z,42.04
2018-08-28T14:35:06.717Z,41.77
2018-08-28T14:37:35.801Z,44.11
2018-08-28T14:40:05.016Z,43.32
2018-08-28T14:42:34.245Z,43.45
2018-08-28T14:45:03.464Z,43.01
2018-08-28T14:47:33.044Z,44.20
2018-08-28T14:50:02.152Z,42.09
2018-08-28T14:52:31.228Z,41.66
2018-08-28T14:55:00.384Z,42.67
2018-08-28T14:57:29.416Z,43.37
2018-08-28T14:59:58.266Z,42.08
2018-08-28T15:02:27.227Z,40.46
2018-08-28T15:04:56.157Z,40.38
2018-08-28T15:07:25.072Z,41.12
2018-08-28T15:09:53.957Z,41.77
2018-08-28T15:12:22.879Z,41.86
2018-08-28T15:14:52.154Z,43.57
2018-08-28T15:17:21.340Z,44.25
2018-08-28T15:19:50.597Z,41.14
2018-08-28T15:22:19.471Z,43.35
2018-08-28T15:24:48.632Z,42.48
2018-08-28T15:27:17.832Z,43.21
2018-08-28T15:29:47.122Z,42.89
2018-08-28T15:32:16.247Z,46.28
2018-08-28T15:34:45.322Z,45.97
2018-08-28T15:37:14.184Z,47.12
2018-08-28T15:39:43.335Z,47.18
2018-08-28T15:42:12.219Z,48.06
2018-08-28T15:44:41.207Z,48.78
2018-08-28T15:47:10.105Z,49.90
2018-08-28T15:49:38.992Z,52.42
2018-08-28T15:52:07.876Z,53.72
2018-08-28T15:54:37.249Z,53.22
2018-08-28T15:57:06.596Z,53.29
2018-08-28T15:59:35.700Z,52.96
2018-08-28T16:02:05.619Z,52.98
2018-08-28T16:04:34.633Z,52.90
2018-08-28T16:07:03.808Z,53.12
2018-08-28T16:09:32.793Z,54.42
2018-08-28T16:12:02.013Z,55.23
2018-08-28T16:14:30.868Z,56.08
2018-08-28T16:16:59.773Z,55.80
2018-08-28T16:19:28.589Z,56.99
2018-08-28T16:21:59.902Z,57.22
2018-08-28T16:24:28.792Z,56.74
2018-08-28T16:26:57.883Z,57.36
2018-08-28T16:29:26.688Z,57.43
2018-08-28T16:31:56.009Z,57.45
2018-08-28T16:34:25.265Z,58.22
2018-08-28T16:36:54.241Z,57.91
2018-08-28T16:39:23.536Z,57.93
2018-08-28T16:41:53.377Z,57.10
2018-08-28T16:44:22.296Z,57.66
2018-08-28T16:46:51.480Z,58.16
2018-08-28T16:49:20.660Z,59.79
2018-08-28T16:51:49.836Z,60.17
2018-08-28T16:54:19.064Z,59.39
2018-08-28T16:56:48.048Z,60.81
2018-08-28T16:59:17.000Z,61.12
2018-08-28T17:01:46.152Z,61.68
2018-08-28T17:04:15.302Z,60.83
2018-08-28T17:06:44.525Z,60.44
2018-08-28T17:09:13.411Z,61.91
2018-08-28T17:11:42.663Z,61.99
2018-08-28T17:14:11.698Z,61.61
2018-08-28T17:16:40.503Z,61.09
2018-08-28T17:19:09.526Z,58.83
2018-08-28T17:21:38.593Z,60.58
2018-08-28T17:24:07.440Z,60.62
2018-08-28T17:26:36.367Z,60.86
2018-08-28T17:29:05.336Z,60.57
2018-08-28T17:31:34.248Z,60.75
2018-08-28T17:34:03.172Z,60.42
2018-08-28T17:36:32.151Z,61.35
2018-08-28T17:39:01.096Z,61.60
2018-08-28T17:41:30.053Z,62.90
2018-08-28T17:43:58.934Z,63.03
2018-08-28T17:46:27.960Z,63.13
2018-08-28T17:48:57.066Z,63.57
2018-08-28T17:51:26.240Z,64.09
2018-08-28T17:53:55.477Z,64.73
2018-08-28T17:56:25.085Z,65.16
2018-08-28T17:58:54.044Z,64.78
2018-08-28T18:01:22.942Z,65.46
2018-08-28T18:03:51.943Z,65.62
2018-08-28T18:06:20.862Z,65.08
2018-08-28T18:08:49.813Z,66.32
2018-08-28T18:11:18.705Z,67.21
2018-08-28T18:13:47.671Z,67.63
2018-08-28T18:16:16.696Z,68.62
2018-08-28T18:18:45.699Z,67.99
2018-08-28T18:21:14.726Z,68.57
2018-08-28T18:23:43.780Z,68.70
2018-08-28T18:26:12.713Z,68.83
2018-08-28T18:28:42.299Z,69.01
2018-08-28T18:31:11.254Z,69.63
2018-08-28T18:33:40.220Z,69.49
2018-08-28T18:36:09.141Z,69.77
2018-08-28T18:38:38.060Z,68.13
2018-08-28T18:41:07.061Z,68.83
2018-08-28T18:43:35.931Z,69.01
2018-08-28T18:46:04.780Z,68.72
2018-08-28T18:48:33.667Z,70.26
2018-08-28T18:51:02.511Z,69.13
2018-08-28T18:53:31.409Z,69.80
2018-08-28T18:56:00.406Z,69.68
2018-08-28T18:58:29.237Z,69.87
2018-08-28T19:00:58.200Z,69.98
2018-08-28T19:03:27.085Z,69.18
2018-08-28T19:05:56.132Z,69.04
2018-08-28T19:08:25.307Z,69.58
2018-08-28T19:10:54.121Z,69.66
2018-08-28T19:13:23.150Z,69.65
2018-08-28T19:15:51.959Z,69.30
2018-08-28T19:18:20.780Z,69.73
2018-08-28T19:20:49.719Z,69.53
2018-08-28T19:23:19.297Z,69.95
2018-08-28T19:25:50.437Z,69.83
2018-08-28T19:28:19.864Z,70.21
2018-08-28T19:30:48.824Z,70.25
2018-08-28T19:33:18.056Z,70.52
2018-08-28T19:35:47.547Z,69.80
2018-08-28T19:38:16.741Z,70.12
2018-08-28T19:40:45.933Z,69.26
2018-08-28T19:43:15.216Z,70.43
2018-08-28T19:45:44.632Z,70.11
2018-08-28T19:48:13.894Z,69.97
2018-08-28T19:50:43.291Z,69.82
2018-08-28T19:53:12.517Z,70.12
2018-08-28T19:55:41.844Z,69.30
2018-08-28T19:58:10.945Z,70.31
2018-08-28T20:00:39.804Z,69.27
2018-08-28T20:03:09.080Z,70.71
2018-08-28T20:05:38.264Z,69.65
2018-08-28T20:08:07.217Z,70.62
2018-08-28T20:10:36.439Z,70.71
2018-08-28T20:13:08.879Z,71.48
2018-08-28T20:15:41.481Z,71.75
2018-08-28T20:18:10.395Z,71.46
2018-08-28T20:20:39.531Z,71.71
2018-08-28T20:23:08.816Z,72.17
2018-08-28T20:25:38.378Z,72.01
2018-08-28T20:28:07.183Z,71.66
2018-08-28T20:30:36.361Z,71.05
2018-08-28T20:33:05.584Z,71.90
2018-08-28T20:35:34.733Z,71.71
2018-08-28T20:38:03.996Z,72.20
2018-08-28T20:40:32.864Z,71.98
2018-08-28T20:43:01.997Z,72.41
2018-08-28T20:45:31.297Z,72.87
2018-08-28T20:48:00.558Z,72.40
2018-08-28T20:50:29.892Z,71.75
2018-08-28T20:52:58.995Z,71.65
2018-08-28T20:55:28.117Z,71.38
2018-08-28T20:57:57.181Z,73.21
2018-08-28T21:00:26.200Z,73.22
2018-08-28T21:02:55.400Z,72.86
2018-08-28T21:05:29.853Z,72.17
2018-08-28T21:08:00.579Z,72.03
2018-08-28T21:10:30.421Z,72.42
2018-08-28T21:12:59.843Z,72.15
2018-08-28T21:15:28.716Z,71.52
2018-08-28T21:17:58.012Z,70.99
2018-08-28T21:20:26.969Z,72.60
2018-08-28T21:22:55.912Z,72.86
2018-08-28T21:25:25.244Z,71.92
2018-08-28T21:27:54.210Z,71.22
2018-08-28T21:30:23.135Z,72.71
2018-08-28T21:32:52.192Z,72.70
2018-08-28T21:35:22.399Z,71.26
2018-08-28T21:37:51.667Z,71.72
2018-08-28T21:40:20.567Z,72.58
2018-08-28T21:42:49.391Z,72.51
2018-08-28T21:45:18.257Z,72.25
2018-08-28T21:47:47.717Z,71.95
2018-08-28T21:50:16.685Z,73.02
2018-08-28T21:52:46.480Z,72.11
2018-08-28T21:55:15.363Z,72.67
2018-08-28T21:57:44.304Z,73.08
2018-08-28T22:00:13.591Z,72.95
2018-08-28T22:02:42.518Z,73.55
2018-08-28T22:05:11.504Z,73.71
2018-08-28T22:07:41.349Z,73.62
2018-08-28T22:10:10.682Z,74.23
2018-08-28T22:12:39.684Z,74.34
2018-08-28T22:15:13.260Z,75.02
2018-08-28T22:17:42.937Z,75.18
2018-08-28T22:20:11.902Z,75.15
2018-08-28T22:22:40.723Z,75.72
2018-08-28T22:25:10.221Z,75.75
2018-08-28T22:27:39.662Z,75.55
2018-08-28T22:30:09.490Z,75.76
2018-08-28T22:32:38.672Z,75.14
2018-08-28T22:35:07.671Z,75.44
2018-08-28T22:37:36.674Z,74.97
2018-08-28T22:40:06.993Z,73.97
2018-08-28T22:42:35.932Z,75.07
2018-08-28T22:45:05.324Z,75.07
2018-08-28T22:47:34.644Z,74.79
2018-08-28T22:50:03.920Z,74.74
2018-08-28T22:52:32.911Z,74.17
2018-08-28T22:55:01.883Z,74.58
2018-08-28T22:57:30.760Z,75.11
2018-08-28T22:59:59.980Z,75.23
2018-08-28T23:02:28.915Z,75.24
2018-08-28T23:04:58.272Z,75.43
2018-08-28T23:07:27.145Z,75.14
2018-08-28T23:09:56.285Z,74.92
2018-08-28T23:12:25.730Z,75.31
2018-08-28T23:14:54.725Z,74.17
2018-08-28T23:17:23.590Z,73.80
2018-08-28T23:19:52.832Z,74.16
2018-08-28T23:22:22.004Z,73.87
2018-08-28T23:24:51.753Z,74.40
2018-08-28T23:27:20.581Z,74.57
2018-08-28T23:29:49.612Z,73.91
2018-08-28T23:32:18.544Z,73.25
2018-08-28T23:34:47.827Z,74.01
2018-08-28T23:37:16.745Z,73.91
2018-08-28T23:39:45.971Z,73.72
2018-08-28T23:42:15.148Z,73.58
2018-08-28T23:44:44.210Z,73.07
2018-08-28T23:47:13.132Z,73.51
2018-08-28T23:49:41.941Z,73.82
2018-08-28T23:52:10.868Z,73.02
2018-08-28T23:54:40.075Z,73.93
2018-08-28T23:57:09.041Z,73.14
2018-08-28T23:59:38.287Z,73.11
